sensor_id;sensor_type;location;lat;lon;timestamp;temperature;humidity
16158;DHT22;8184;60.256;18.694;2023-08-21T00:01:50;16.70;99.90
16158;DHT22;8184;60.256;18.694;2023-08-21T00:04:18;16.70;99.90
16158;DHT22;8184;60.256;18.694;2023-08-21T00:06:47;16.70;99.90
16158;DHT22;8184;60.256;18.694;2023-08-21T00:09:16;16.70;99.90
16158;DHT22;8184;60.256;18.694;2023-08-21T00:11:44;16.70;99.90
16158;DHT22;8184;60.256;18.694;2023-08-21T00:14:12;16.70;99.90
16158;DHT22;8184;60.256;18.694;2023-08-21T00:16:40;16.70;99.90
16158;DHT22;8184;60.256;18.694;2023-08-21T00:19:09;16.70;99.90
16158;DHT22;8184;60.256;18.694;2023-08-21T00:21:37;16.70;99.90
16158;DHT22;8184;60.256;18.694;2023-08-21T00:24:05;16.70;99.90
16158;DHT22;8184;60.256;18.694;2023-08-21T00:26:35;16.80;99.90
16158;DHT22;8184;60.256;18.694;2023-08-21T00:29:03;16.70;99.90
16158;DHT22;8184;60.256;18.694;2023-08-21T00:31:31;16.70;99.90
16158;DHT22;8184;60.256;18.694;2023-08-21T00:33:59;16.70;99.90
16158;DHT22;8184;60.256;18.694;2023-08-21T00:36:27;16.80;99.90
16158;DHT22;8184;60.256;18.694;2023-08-21T00:38:57;16.80;99.90
16158;DHT22;8184;60.256;18.694;2023-08-21T00:41:25;16.80;99.90
16158;DHT22;8184;60.256;18.694;2023-08-21T00:43:54;16.80;99.90
16158;DHT22;8184;60.256;18.694;2023-08-21T00:46:25;16.70;99.90
16158;DHT22;8184;60.256;18.694;2023-08-21T00:48:53;16.70;99.90
16158;DHT22;8184;60.256;18.694;2023-08-21T00:51:22;16.70;99.90
16158;DHT22;8184;60.256;18.694;2023-08-21T00:53:50;16.70;99.90
16158;DHT22;8184;60.256;18.694;2023-08-21T00:56:18;16.70;99.90
16158;DHT22;8184;60.256;18.694;2023-08-21T00:58:46;16.70;99.90
16158;DHT22;8184;60.256;18.694;2023-08-21T01:01:16;16.70;99.90
16158;DHT22;8184;60.256;18.694;2023-08-21T01:03:45;16.70;99.90
16158;DHT22;8184;60.256;18.694;2023-08-21T01:06:14;16.70;99.90
16158;DHT22;8184;60.256;18.694;2023-08-21T01:08:42;16.80;99.90
16158;DHT22;8184;60.256;18.694;2023-08-21T01:11:14;16.70;99.90
16158;DHT22;8184;60.256;18.694;2023-08-21T01:13:47;16.70;99.90
16158;DHT22;8184;60.256;18.694;2023-08-21T01:16:19;16.80;99.90
16158;DHT22;8184;60.256;18.694;2023-08-21T01:18:48;16.70;99.90
16158;DHT22;8184;60.256;18.694;2023-08-21T01:21:17;16.70;99.90
16158;DHT22;8184;60.256;18.694;2023-08-21T01:23:47;16.80;99.90
16158;DHT22;8184;60.256;18.694;2023-08-21T01:26:15;16.70;99.90
16158;DHT22;8184;60.256;18.694;2023-08-21T01:28:44;16.80;99.90
16158;DHT22;8184;60.256;18.694;2023-08-21T01:31:13;16.80;99.90
16158;DHT22;8184;60.256;18.694;2023-08-21T01:33:44;16.80;99.90
16158;DHT22;8184;60.256;18.694;2023-08-21T01:36:13;16.80;99.90
16158;DHT22;8184;60.256;18.694;2023-08-21T01:38:43;16.80;99.90
16158;DHT22;8184;60.256;18.694;2023-08-21T01:41:13;16.80;99.90
16158;DHT22;8184;60.256;18.694;2023-08-21T01:43:41;16.80;99.90
16158;DHT22;8184;60.256;18.694;2023-08-21T01:46:09;16.80;99.90
16158;DHT22;8184;60.256;18.694;2023-08-21T01:48:37;16.80;99.90
16158;DHT22;8184;60.256;18.694;2023-08-21T01:51:06;16.80;99.90
16158;DHT22;8184;60.256;18.694;2023-08-21T01:53:34;16.80;99.90
16158;DHT22;8184;60.256;18.694;2023-08-21T01:56:02;16.80;99.90
16158;DHT22;8184;60.256;18.694;2023-08-21T01:58:31;16.70;99.90
16158;DHT22;8184;60.256;18.694;2023-08-21T02:01:00;16.70;99.90
16158;DHT22;8184;60.256;18.694;2023-08-21T02:03:28;16.70;99.90
16158;DHT22;8184;60.256;18.694;2023-08-21T02:05:57;16.70;99.90
16158;DHT22;8184;60.256;18.694;2023-08-21T02:08:27;16.70;99.90
16158;DHT22;8184;60.256;18.694;2023-08-21T02:10:58;16.70;99.90
16158;DHT22;8184;60.256;18.694;2023-08-21T02:13:26;16.70;99.90
16158;DHT22;8184;60.256;18.694;2023-08-21T02:15:56;16.70;99.90
16158;DHT22;8184;60.256;18.694;2023-08-21T02:18:24;16.80;99.90
16158;DHT22;8184;60.256;18.694;2023-08-21T02:20:52;16.70;99.90
16158;DHT22;8184;60.256;18.694;2023-08-21T02:23:20;16.60;99.90
16158;DHT22;8184;60.256;18.694;2023-08-21T02:25:50;16.60;99.90
16158;DHT22;8184;60.256;18.694;2023-08-21T02:28:19;16.60;99.90
16158;DHT22;8184;60.256;18.694;2023-08-21T02:30:47;16.60;99.90
16158;DHT22;8184;60.256;18.694;2023-08-21T02:33:16;16.60;99.90
16158;DHT22;8184;60.256;18.694;2023-08-21T02:35:47;16.70;99.90
16158;DHT22;8184;60.256;18.694;2023-08-21T02:38:16;16.70;99.90
16158;DHT22;8184;60.256;18.694;2023-08-21T02:40:44;16.70;99.90
16158;DHT22;8184;60.256;18.694;2023-08-21T02:43:12;16.70;99.90
16158;DHT22;8184;60.256;18.694;2023-08-21T02:45:40;16.70;99.90
16158;DHT22;8184;60.256;18.694;2023-08-21T02:48:09;16.80;99.90
16158;DHT22;8184;60.256;18.694;2023-08-21T02:50:39;16.80;99.90
16158;DHT22;8184;60.256;18.694;2023-08-21T02:53:08;16.80;99.90
16158;DHT22;8184;60.256;18.694;2023-08-21T02:55:36;16.70;99.90
16158;DHT22;8184;60.256;18.694;2023-08-21T02:58:04;16.70;99.90
16158;DHT22;8184;60.256;18.694;2023-08-21T03:00:32;16.70;99.90
16158;DHT22;8184;60.256;18.694;2023-08-21T03:03:01;16.70;99.90
16158;DHT22;8184;60.256;18.694;2023-08-21T03:05:29;16.60;99.90
16158;DHT22;8184;60.256;18.694;2023-08-21T03:07:59;16.70;99.90
16158;DHT22;8184;60.256;18.694;2023-08-21T03:10:27;16.70;99.90
16158;DHT22;8184;60.256;18.694;2023-08-21T03:12:56;16.70;99.90
16158;DHT22;8184;60.256;18.694;2023-08-21T03:15:24;16.70;99.90
16158;DHT22;8184;60.256;18.694;2023-08-21T03:17:52;16.80;99.90
16158;DHT22;8184;60.256;18.694;2023-08-21T03:20:21;16.80;99.90
16158;DHT22;8184;60.256;18.694;2023-08-21T03:22:49;16.80;99.90
16158;DHT22;8184;60.256;18.694;2023-08-21T03:25:18;16.80;99.90
16158;DHT22;8184;60.256;18.694;2023-08-21T03:27:49;16.70;99.90
16158;DHT22;8184;60.256;18.694;2023-08-21T03:30:17;16.70;99.90
16158;DHT22;8184;60.256;18.694;2023-08-21T03:32:45;16.70;99.90
16158;DHT22;8184;60.256;18.694;2023-08-21T03:35:13;16.70;99.90
16158;DHT22;8184;60.256;18.694;2023-08-21T03:37:41;16.70;99.90
16158;DHT22;8184;60.256;18.694;2023-08-21T03:40:10;16.80;99.90
16158;DHT22;8184;60.256;18.694;2023-08-21T03:42:39;16.80;99.90
16158;DHT22;8184;60.256;18.694;2023-08-21T03:45:08;16.80;99.90
16158;DHT22;8184;60.256;18.694;2023-08-21T03:47:36;16.80;99.90
16158;DHT22;8184;60.256;18.694;2023-08-21T03:50:04;16.80;99.90
16158;DHT22;8184;60.256;18.694;2023-08-21T03:52:33;16.80;99.90
16158;DHT22;8184;60.256;18.694;2023-08-21T03:55:04;16.80;99.90
16158;DHT22;8184;60.256;18.694;2023-08-21T03:57:32;16.80;99.90
16158;DHT22;8184;60.256;18.694;2023-08-21T04:00:02;16.80;99.90
16158;DHT22;8184;60.256;18.694;2023-08-21T04:02:31;16.80;99.90
16158;DHT22;8184;60.256;18.694;2023-08-21T04:04:59;16.90;99.90
16158;DHT22;8184;60.256;18.694;2023-08-21T04:07:27;16.90;99.90
16158;DHT22;8184;60.256;18.694;2023-08-21T04:09:56;16.90;99.90
16158;DHT22;8184;60.256;18.694;2023-08-21T04:12:24;16.80;99.90
16158;DHT22;8184;60.256;18.694;2023-08-21T04:14:52;16.90;99.90
16158;DHT22;8184;60.256;18.694;2023-08-21T04:17:22;16.90;99.90
16158;DHT22;8184;60.256;18.694;2023-08-21T04:19:50;16.90;99.90
16158;DHT22;8184;60.256;18.694;2023-08-21T04:22:20;16.90;99.90
16158;DHT22;8184;60.256;18.694;2023-08-21T04:24:48;16.90;99.90
16158;DHT22;8184;60.256;18.694;2023-08-21T04:27:16;16.90;99.90
16158;DHT22;8184;60.256;18.694;2023-08-21T04:29:44;16.90;99.90
16158;DHT22;8184;60.256;18.694;2023-08-21T04:32:13;16.90;99.90
16158;DHT22;8184;60.256;18.694;2023-08-21T04:34:42;17.00;99.90
16158;DHT22;8184;60.256;18.694;2023-08-21T04:37:12;17.00;99.90
16158;DHT22;8184;60.256;18.694;2023-08-21T04:39:40;17.00;99.90
16158;DHT22;8184;60.256;18.694;2023-08-21T04:42:09;17.10;99.90
16158;DHT22;8184;60.256;18.694;2023-08-21T04:44:37;17.10;99.90
16158;DHT22;8184;60.256;18.694;2023-08-21T04:47:21;17.20;99.90
16158;DHT22;8184;60.256;18.694;2023-08-21T04:49:51;17.20;99.90
16158;DHT22;8184;60.256;18.694;2023-08-21T04:52:22;17.20;99.90
16158;DHT22;8184;60.256;18.694;2023-08-21T04:54:50;17.30;99.90
16158;DHT22;8184;60.256;18.694;2023-08-21T04:57:18;17.30;99.90
16158;DHT22;8184;60.256;18.694;2023-08-21T04:59:48;17.30;99.90
16158;DHT22;8184;60.256;18.694;2023-08-21T05:02:17;17.30;99.90
16158;DHT22;8184;60.256;18.694;2023-08-21T05:04:47;17.30;99.90
16158;DHT22;8184;60.256;18.694;2023-08-21T05:07:17;17.40;99.90
16158;DHT22;8184;60.256;18.694;2023-08-21T05:09:45;17.40;99.90
16158;DHT22;8184;60.256;18.694;2023-08-21T05:12:16;17.40;99.90
16158;DHT22;8184;60.256;18.694;2023-08-21T05:14:44;17.40;99.90
16158;DHT22;8184;60.256;18.694;2023-08-21T05:17:12;17.40;99.90
16158;DHT22;8184;60.256;18.694;2023-08-21T05:19:40;17.40;99.90
16158;DHT22;8184;60.256;18.694;2023-08-21T05:22:08;17.40;99.90
16158;DHT22;8184;60.256;18.694;2023-08-21T05:24:41;17.40;99.90
16158;DHT22;8184;60.256;18.694;2023-08-21T05:27:09;17.30;99.90
16158;DHT22;8184;60.256;18.694;2023-08-21T05:29:37;17.40;99.90
16158;DHT22;8184;60.256;18.694;2023-08-21T05:32:06;17.40;99.90
16158;DHT22;8184;60.256;18.694;2023-08-21T05:34:34;17.40;99.90
16158;DHT22;8184;60.256;18.694;2023-08-21T05:37:02;17.40;99.90
16158;DHT22;8184;60.256;18.694;2023-08-21T05:39:30;17.50;99.90
16158;DHT22;8184;60.256;18.694;2023-08-21T05:41:59;17.50;99.90
16158;DHT22;8184;60.256;18.694;2023-08-21T05:44:30;17.60;99.90
16158;DHT22;8184;60.256;18.694;2023-08-21T05:46:58;17.50;99.90
16158;DHT22;8184;60.256;18.694;2023-08-21T05:49:27;17.60;99.90
16158;DHT22;8184;60.256;18.694;2023-08-21T05:51:56;17.60;99.90
16158;DHT22;8184;60.256;18.694;2023-08-21T05:54:25;17.60;99.90
16158;DHT22;8184;60.256;18.694;2023-08-21T05:56:53;17.60;99.90
16158;DHT22;8184;60.256;18.694;2023-08-21T05:59:31;17.60;99.90
16158;DHT22;8184;60.256;18.694;2023-08-21T06:01:59;17.70;99.90
16158;DHT22;8184;60.256;18.694;2023-08-21T06:04:30;17.70;99.90
16158;DHT22;8184;60.256;18.694;2023-08-21T06:06:58;17.70;99.90
16158;DHT22;8184;60.256;18.694;2023-08-21T06:09:27;17.80;99.90
16158;DHT22;8184;60.256;18.694;2023-08-21T06:11:56;17.70;99.90
16158;DHT22;8184;60.256;18.694;2023-08-21T06:14:25;17.70;99.90
16158;DHT22;8184;60.256;18.694;2023-08-21T06:16:58;17.70;99.90
16158;DHT22;8184;60.256;18.694;2023-08-21T06:19:35;17.70;99.90
16158;DHT22;8184;60.256;18.694;2023-08-21T06:22:04;17.80;99.90
16158;DHT22;8184;60.256;18.694;2023-08-21T06:24:32;17.80;99.90
16158;DHT22;8184;60.256;18.694;2023-08-21T06:27:01;17.80;99.90
16158;DHT22;8184;60.256;18.694;2023-08-21T06:29:32;17.80;99.90
16158;DHT22;8184;60.256;18.694;2023-08-21T06:32:02;17.80;99.90
16158;DHT22;8184;60.256;18.694;2023-08-21T06:34:30;17.80;99.90
16158;DHT22;8184;60.256;18.694;2023-08-21T06:37:01;17.90;99.90
16158;DHT22;8184;60.256;18.694;2023-08-21T06:39:30;17.90;99.90
16158;DHT22;8184;60.256;18.694;2023-08-21T06:41:58;18.00;99.90
16158;DHT22;8184;60.256;18.694;2023-08-21T06:44:27;18.00;99.90
16158;DHT22;8184;60.256;18.694;2023-08-21T06:46:55;18.00;99.90
16158;DHT22;8184;60.256;18.694;2023-08-21T06:49:25;18.10;99.90
16158;DHT22;8184;60.256;18.694;2023-08-21T06:51:53;18.10;99.90
16158;DHT22;8184;60.256;18.694;2023-08-21T06:54:21;18.10;99.90
16158;DHT22;8184;60.256;18.694;2023-08-21T06:56:49;18.30;99.90
16158;DHT22;8184;60.256;18.694;2023-08-21T06:59:18;18.40;99.90
16158;DHT22;8184;60.256;18.694;2023-08-21T07:01:46;18.30;99.90
16158;DHT22;8184;60.256;18.694;2023-08-21T07:04:14;18.40;99.90
16158;DHT22;8184;60.256;18.694;2023-08-21T07:06:44;18.40;99.90
16158;DHT22;8184;60.256;18.694;2023-08-21T07:09:12;18.40;99.90
16158;DHT22;8184;60.256;18.694;2023-08-21T07:11:40;18.30;99.90
16158;DHT22;8184;60.256;18.694;2023-08-21T07:14:08;18.20;99.90
16158;DHT22;8184;60.256;18.694;2023-08-21T07:16:36;18.20;99.90
16158;DHT22;8184;60.256;18.694;2023-08-21T07:19:05;18.10;99.90
16158;DHT22;8184;60.256;18.694;2023-08-21T07:21:33;18.10;99.90
16158;DHT22;8184;60.256;18.694;2023-08-21T07:24:04;18.00;99.90
16158;DHT22;8184;60.256;18.694;2023-08-21T07:26:35;17.90;99.90
16158;DHT22;8184;60.256;18.694;2023-08-21T07:29:04;18.00;99.90
16158;DHT22;8184;60.256;18.694;2023-08-21T07:31:32;17.90;99.90
16158;DHT22;8184;60.256;18.694;2023-08-21T07:34:01;18.00;99.90
16158;DHT22;8184;60.256;18.694;2023-08-21T07:36:29;18.00;99.90
16158;DHT22;8184;60.256;18.694;2023-08-21T07:38:59;18.20;99.90
16158;DHT22;8184;60.256;18.694;2023-08-21T07:41:28;18.20;99.90
16158;DHT22;8184;60.256;18.694;2023-08-21T07:43:56;18.40;99.90
16158;DHT22;8184;60.256;18.694;2023-08-21T07:46:25;18.40;99.90
16158;DHT22;8184;60.256;18.694;2023-08-21T07:48:56;18.30;99.90
16158;DHT22;8184;60.256;18.694;2023-08-21T07:51:24;18.30;99.90
16158;DHT22;8184;60.256;18.694;2023-08-21T07:53:52;18.40;99.90
16158;DHT22;8184;60.256;18.694;2023-08-21T07:56:21;18.70;99.90
16158;DHT22;8184;60.256;18.694;2023-08-21T07:58:50;18.90;99.90
16158;DHT22;8184;60.256;18.694;2023-08-21T08:01:18;19.10;99.90
16158;DHT22;8184;60.256;18.694;2023-08-21T08:03:47;19.30;99.90
16158;DHT22;8184;60.256;18.694;2023-08-21T08:06:17;19.40;99.90
16158;DHT22;8184;60.256;18.694;2023-08-21T08:08:45;19.40;99.90
16158;DHT22;8184;60.256;18.694;2023-08-21T08:11:13;19.50;99.90
16158;DHT22;8184;60.256;18.694;2023-08-21T08:13:41;19.40;99.90
16158;DHT22;8184;60.256;18.694;2023-08-21T08:16:11;19.60;99.90
16158;DHT22;8184;60.256;18.694;2023-08-21T08:18:39;19.60;99.90
16158;DHT22;8184;60.256;18.694;2023-08-21T08:21:07;19.80;99.90
16158;DHT22;8184;60.256;18.694;2023-08-21T08:23:38;19.80;99.90
16158;DHT22;8184;60.256;18.694;2023-08-21T08:26:07;19.70;99.90
16158;DHT22;8184;60.256;18.694;2023-08-21T08:28:36;19.70;99.90
16158;DHT22;8184;60.256;18.694;2023-08-21T08:31:04;19.70;99.90
16158;DHT22;8184;60.256;18.694;2023-08-21T08:33:33;19.80;99.90
16158;DHT22;8184;60.256;18.694;2023-08-21T08:36:01;19.80;99.90
16158;DHT22;8184;60.256;18.694;2023-08-21T08:38:30;19.80;99.90
16158;DHT22;8184;60.256;18.694;2023-08-21T08:40:58;20.00;99.90
16158;DHT22;8184;60.256;18.694;2023-08-21T08:43:28;20.20;99.90
16158;DHT22;8184;60.256;18.694;2023-08-21T08:45:56;20.30;99.90
16158;DHT22;8184;60.256;18.694;2023-08-21T08:48:26;20.20;99.90
16158;DHT22;8184;60.256;18.694;2023-08-21T08:50:55;20.30;99.90
16158;DHT22;8184;60.256;18.694;2023-08-21T08:53:24;20.50;99.90
16158;DHT22;8184;60.256;18.694;2023-08-21T08:55:53;20.70;99.90
16158;DHT22;8184;60.256;18.694;2023-08-21T08:58:22;20.80;99.90
16158;DHT22;8184;60.256;18.694;2023-08-21T09:00:50;20.80;99.90
16158;DHT22;8184;60.256;18.694;2023-08-21T09:03:18;21.10;99.90
16158;DHT22;8184;60.256;18.694;2023-08-21T09:05:47;21.40;99.90
16158;DHT22;8184;60.256;18.694;2023-08-21T09:08:18;21.50;99.90
16158;DHT22;8184;60.256;18.694;2023-08-21T09:10:46;21.60;99.90
16158;DHT22;8184;60.256;18.694;2023-08-21T09:13:14;21.70;99.90
16158;DHT22;8184;60.256;18.694;2023-08-21T09:15:43;21.70;99.90
16158;DHT22;8184;60.256;18.694;2023-08-21T09:18:14;21.80;99.90
16158;DHT22;8184;60.256;18.694;2023-08-21T09:20:43;22.00;99.90
16158;DHT22;8184;60.256;18.694;2023-08-21T09:23:13;22.10;99.90
16158;DHT22;8184;60.256;18.694;2023-08-21T09:25:43;22.10;99.90
16158;DHT22;8184;60.256;18.694;2023-08-21T09:28:14;22.00;99.90
16158;DHT22;8184;60.256;18.694;2023-08-21T09:30:49;22.00;99.90
16158;DHT22;8184;60.256;18.694;2023-08-21T09:33:17;22.30;99.90
16158;DHT22;8184;60.256;18.694;2023-08-21T09:35:47;22.10;99.90
16158;DHT22;8184;60.256;18.694;2023-08-21T09:38:15;22.30;99.90
16158;DHT22;8184;60.256;18.694;2023-08-21T09:40:49;22.50;99.90
16158;DHT22;8184;60.256;18.694;2023-08-21T09:43:18;22.40;99.90
16158;DHT22;8184;60.256;18.694;2023-08-21T09:45:48;21.90;99.90
16158;DHT22;8184;60.256;18.694;2023-08-21T09:48:17;21.80;99.90
16158;DHT22;8184;60.256;18.694;2023-08-21T09:50:46;21.20;99.90
16158;DHT22;8184;60.256;18.694;2023-08-21T09:53:14;20.80;99.90
16158;DHT22;8184;60.256;18.694;2023-08-21T09:55:42;21.20;99.90
16158;DHT22;8184;60.256;18.694;2023-08-21T09:58:12;21.00;99.90
16158;DHT22;8184;60.256;18.694;2023-08-21T10:00:41;21.10;99.90
16158;DHT22;8184;60.256;18.694;2023-08-21T10:03:09;21.10;99.90
16158;DHT22;8184;60.256;18.694;2023-08-21T10:05:39;20.90;99.90
16158;DHT22;8184;60.256;18.694;2023-08-21T10:08:07;21.00;99.90
16158;DHT22;8184;60.256;18.694;2023-08-21T10:10:37;21.00;99.90
16158;DHT22;8184;60.256;18.694;2023-08-21T10:13:05;21.50;99.90
16158;DHT22;8184;60.256;18.694;2023-08-21T10:15:36;22.00;99.90
16158;DHT22;8184;60.256;18.694;2023-08-21T10:18:17;22.20;99.90
16158;DHT22;8184;60.256;18.694;2023-08-21T10:20:46;22.00;99.90
16158;DHT22;8184;60.256;18.694;2023-08-21T10:23:24;21.90;99.90
16158;DHT22;8184;60.256;18.694;2023-08-21T10:25:55;22.20;99.90
16158;DHT22;8184;60.256;18.694;2023-08-21T10:28:43;21.90;99.90
16158;DHT22;8184;60.256;18.694;2023-08-21T10:31:28;22.00;99.90
16158;DHT22;8184;60.256;18.694;2023-08-21T10:33:58;21.90;99.90
16158;DHT22;8184;60.256;18.694;2023-08-21T10:36:39;21.80;99.90
16158;DHT22;8184;60.256;18.694;2023-08-21T10:39:13;21.90;99.90
16158;DHT22;8184;60.256;18.694;2023-08-21T10:41:52;22.50;99.90
16158;DHT22;8184;60.256;18.694;2023-08-21T10:44:33;22.40;99.90
16158;DHT22;8184;60.256;18.694;2023-08-21T10:47:15;22.30;99.90
16158;DHT22;8184;60.256;18.694;2023-08-21T10:49:44;22.70;99.90
16158;DHT22;8184;60.256;18.694;2023-08-21T10:52:13;22.80;99.90
16158;DHT22;8184;60.256;18.694;2023-08-21T10:54:46;22.50;99.90
16158;DHT22;8184;60.256;18.694;2023-08-21T10:57:15;22.80;99.90
16158;DHT22;8184;60.256;18.694;2023-08-21T10:59:50;23.10;99.90
16158;DHT22;8184;60.256;18.694;2023-08-21T11:02:20;23.10;99.90
16158;DHT22;8184;60.256;18.694;2023-08-21T11:04:48;23.00;99.90
16158;DHT22;8184;60.256;18.694;2023-08-21T11:07:17;22.90;99.90
16158;DHT22;8184;60.256;18.694;2023-08-21T11:09:45;22.80;99.90
16158;DHT22;8184;60.256;18.694;2023-08-21T11:12:14;22.60;99.90
16158;DHT22;8184;60.256;18.694;2023-08-21T11:14:43;22.70;99.90
16158;DHT22;8184;60.256;18.694;2023-08-21T11:17:11;22.20;99.90
16158;DHT22;8184;60.256;18.694;2023-08-21T11:19:41;22.30;99.90
16158;DHT22;8184;60.256;18.694;2023-08-21T11:22:10;22.60;99.90
16158;DHT22;8184;60.256;18.694;2023-08-21T11:24:42;22.40;99.90
16158;DHT22;8184;60.256;18.694;2023-08-21T11:27:11;22.50;99.90
16158;DHT22;8184;60.256;18.694;2023-08-21T11:29:40;22.90;99.90
16158;DHT22;8184;60.256;18.694;2023-08-21T11:32:09;22.80;99.90
16158;DHT22;8184;60.256;18.694;2023-08-21T11:34:36;22.90;99.90
16158;DHT22;8184;60.256;18.694;2023-08-21T11:37:06;22.60;99.90
16158;DHT22;8184;60.256;18.694;2023-08-21T11:39:43;22.20;99.90
16158;DHT22;8184;60.256;18.694;2023-08-21T11:42:12;21.90;99.90
16158;DHT22;8184;60.256;18.694;2023-08-21T11:44:41;22.60;99.90
16158;DHT22;8184;60.256;18.694;2023-08-21T11:47:09;22.90;99.90
16158;DHT22;8184;60.256;18.694;2023-08-21T11:49:38;23.00;99.90
16158;DHT22;8184;60.256;18.694;2023-08-21T11:52:09;22.60;99.90
16158;DHT22;8184;60.256;18.694;2023-08-21T11:54:38;23.00;99.90
16158;DHT22;8184;60.256;18.694;2023-08-21T11:57:08;23.10;99.90
16158;DHT22;8184;60.256;18.694;2023-08-21T11:59:36;23.20;99.90
16158;DHT22;8184;60.256;18.694;2023-08-21T12:02:13;23.10;99.90
16158;DHT22;8184;60.256;18.694;2023-08-21T12:04:41;23.30;99.90
16158;DHT22;8184;60.256;18.694;2023-08-21T12:07:12;23.20;99.90
16158;DHT22;8184;60.256;18.694;2023-08-21T12:09:45;23.50;99.90
16158;DHT22;8184;60.256;18.694;2023-08-21T12:12:15;23.60;99.90
16158;DHT22;8184;60.256;18.694;2023-08-21T12:14:43;23.50;99.90
16158;DHT22;8184;60.256;18.694;2023-08-21T12:17:11;23.90;99.90
16158;DHT22;8184;60.256;18.694;2023-08-21T12:19:39;23.90;99.90
16158;DHT22;8184;60.256;18.694;2023-08-21T12:22:08;23.70;99.90
16158;DHT22;8184;60.256;18.694;2023-08-21T12:24:38;23.90;99.90
16158;DHT22;8184;60.256;18.694;2023-08-21T12:27:06;24.00;99.90
16158;DHT22;8184;60.256;18.694;2023-08-21T12:29:35;24.10;99.90
16158;DHT22;8184;60.256;18.694;2023-08-21T12:32:03;24.00;99.90
16158;DHT22;8184;60.256;18.694;2023-08-21T12:34:31;23.70;99.90
16158;DHT22;8184;60.256;18.694;2023-08-21T12:37:00;23.90;99.90
16158;DHT22;8184;60.256;18.694;2023-08-21T12:39:30;24.30;99.90
16158;DHT22;8184;60.256;18.694;2023-08-21T12:41:59;24.20;99.90
16158;DHT22;8184;60.256;18.694;2023-08-21T12:44:28;23.90;99.90
16158;DHT22;8184;60.256;18.694;2023-08-21T12:47:03;23.60;99.90
16158;DHT22;8184;60.256;18.694;2023-08-21T12:49:31;24.30;99.90
16158;DHT22;8184;60.256;18.694;2023-08-21T12:52:00;24.20;99.90
16158;DHT22;8184;60.256;18.694;2023-08-21T12:54:33;24.00;99.90
16158;DHT22;8184;60.256;18.694;2023-08-21T12:57:03;24.50;99.90
16158;DHT22;8184;60.256;18.694;2023-08-21T12:59:31;24.50;99.90
16158;DHT22;8184;60.256;18.694;2023-08-21T13:01:59;24.20;99.90
16158;DHT22;8184;60.256;18.694;2023-08-21T13:04:28;23.90;99.90
16158;DHT22;8184;60.256;18.694;2023-08-21T13:06:56;23.70;99.90
16158;DHT22;8184;60.256;18.694;2023-08-21T13:09:24;23.80;99.90
16158;DHT22;8184;60.256;18.694;2023-08-21T13:11:53;23.60;99.90
16158;DHT22;8184;60.256;18.694;2023-08-21T13:14:23;23.50;99.90
16158;DHT22;8184;60.256;18.694;2023-08-21T13:16:51;23.60;99.90
16158;DHT22;8184;60.256;18.694;2023-08-21T13:19:20;23.40;99.90
16158;DHT22;8184;60.256;18.694;2023-08-21T13:21:50;23.20;99.90
16158;DHT22;8184;60.256;18.694;2023-08-21T13:24:20;22.90;99.90
16158;DHT22;8184;60.256;18.694;2023-08-21T13:26:48;23.10;99.90
16158;DHT22;8184;60.256;18.694;2023-08-21T13:29:16;22.90;99.90
16158;DHT22;8184;60.256;18.694;2023-08-21T13:31:46;23.20;99.90
16158;DHT22;8184;60.256;18.694;2023-08-21T13:34:14;22.90;99.90
16158;DHT22;8184;60.256;18.694;2023-08-21T13:36:42;22.80;99.90
16158;DHT22;8184;60.256;18.694;2023-08-21T13:39:10;22.70;99.90
16158;DHT22;8184;60.256;18.694;2023-08-21T13:41:42;22.60;99.90
16158;DHT22;8184;60.256;18.694;2023-08-21T13:44:10;22.90;99.90
16158;DHT22;8184;60.256;18.694;2023-08-21T13:46:38;23.40;99.90
16158;DHT22;8184;60.256;18.694;2023-08-21T13:49:08;23.50;99.90
16158;DHT22;8184;60.256;18.694;2023-08-21T13:51:37;24.00;99.90
16158;DHT22;8184;60.256;18.694;2023-08-21T13:54:05;24.00;99.90
16158;DHT22;8184;60.256;18.694;2023-08-21T13:56:33;23.90;99.90
16158;DHT22;8184;60.256;18.694;2023-08-21T13:59:01;23.80;99.90
16158;DHT22;8184;60.256;18.694;2023-08-21T14:01:30;23.80;99.90
16158;DHT22;8184;60.256;18.694;2023-08-21T14:03:58;23.70;99.90
16158;DHT22;8184;60.256;18.694;2023-08-21T14:06:27;24.10;99.90
16158;DHT22;8184;60.256;18.694;2023-08-21T14:08:56;23.60;99.90
16158;DHT22;8184;60.256;18.694;2023-08-21T14:11:24;23.30;99.90
16158;DHT22;8184;60.256;18.694;2023-08-21T14:13:52;23.20;99.90
16158;DHT22;8184;60.256;18.694;2023-08-21T14:16:20;23.70;99.90
16158;DHT22;8184;60.256;18.694;2023-08-21T14:18:49;23.70;99.90
16158;DHT22;8184;60.256;18.694;2023-08-21T14:21:17;23.50;99.90
16158;DHT22;8184;60.256;18.694;2023-08-21T14:23:46;23.20;99.90
16158;DHT22;8184;60.256;18.694;2023-08-21T14:26:14;23.10;99.90
16158;DHT22;8184;60.256;18.694;2023-08-21T14:28:42;23.20;99.90
16158;DHT22;8184;60.256;18.694;2023-08-21T14:31:17;23.00;99.90
16158;DHT22;8184;60.256;18.694;2023-08-21T14:33:45;23.40;99.90
16158;DHT22;8184;60.256;18.694;2023-08-21T14:36:13;23.60;99.90
16158;DHT22;8184;60.256;18.694;2023-08-21T14:38:43;23.50;99.90
16158;DHT22;8184;60.256;18.694;2023-08-21T14:41:12;23.60;99.90
16158;DHT22;8184;60.256;18.694;2023-08-21T14:43:40;23.40;99.90
16158;DHT22;8184;60.256;18.694;2023-08-21T14:46:09;23.70;99.90
16158;DHT22;8184;60.256;18.694;2023-08-21T14:48:38;23.70;99.90
16158;DHT22;8184;60.256;18.694;2023-08-21T14:51:07;23.90;99.90
16158;DHT22;8184;60.256;18.694;2023-08-21T14:53:35;23.60;99.90
16158;DHT22;8184;60.256;18.694;2023-08-21T14:56:03;23.50;99.90
16158;DHT22;8184;60.256;18.694;2023-08-21T14:58:33;23.60;99.90
16158;DHT22;8184;60.256;18.694;2023-08-21T15:01:01;23.30;99.90
16158;DHT22;8184;60.256;18.694;2023-08-21T15:03:31;23.40;99.90
16158;DHT22;8184;60.256;18.694;2023-08-21T15:05:59;23.10;99.90
16158;DHT22;8184;60.256;18.694;2023-08-21T15:08:27;23.50;99.90
16158;DHT22;8184;60.256;18.694;2023-08-21T15:10:56;23.50;99.90
16158;DHT22;8184;60.256;18.694;2023-08-21T15:13:24;23.50;99.90
16158;DHT22;8184;60.256;18.694;2023-08-21T15:15:54;23.40;99.90
16158;DHT22;8184;60.256;18.694;2023-08-21T15:18:22;23.50;99.90
16158;DHT22;8184;60.256;18.694;2023-08-21T15:20:50;23.60;99.90
16158;DHT22;8184;60.256;18.694;2023-08-21T15:23:18;23.40;99.90
16158;DHT22;8184;60.256;18.694;2023-08-21T15:25:46;22.70;99.90
16158;DHT22;8184;60.256;18.694;2023-08-21T15:28:15;22.50;99.90
16158;DHT22;8184;60.256;18.694;2023-08-21T15:30:43;22.70;99.90
16158;DHT22;8184;60.256;18.694;2023-08-21T15:33:13;22.70;99.90
16158;DHT22;8184;60.256;18.694;2023-08-21T15:35:41;22.30;99.90
16158;DHT22;8184;60.256;18.694;2023-08-21T15:38:09;22.50;99.90
16158;DHT22;8184;60.256;18.694;2023-08-21T15:40:37;22.60;99.90
16158;DHT22;8184;60.256;18.694;2023-08-21T15:43:09;22.80;99.90